Time;durP1;ratioP1;P1;durP2;ratioP2;P2;SDS_P1;SDS_P2;PMS_P1;PMS_P2;Temp;Humidity;BMP_temperature;BMP_pressure;BME280_temperature;BME280_humidity;BME280_pressure;Samples;Min_cycle;Max_cycle;Signal;HPM_P1;HPM_P2
2022/02/12 00:00:14;;;;;;;;;16.00;14.00;;;;;21.22;33.04;102744.16;5055896;28;45373;-60
2022/02/12 00:02:40;;;;;;;;;13.00;13.00;;;;;21.20;32.43;102745.97;5056166;28;45238;-60
2022/02/12 00:05:07;;;;;;;;;15.25;14.00;;;;;21.20;32.46;102754.78;5056715;28;45391;-60
2022/02/12 00:07:33;;;;;;;;;15.25;13.50;;;;;21.17;32.99;102752.22;5055906;28;47650;-60
2022/02/12 00:09:58;;;;;;;;;13.75;13.00;;;;;21.15;32.65;102748.75;5055948;28;45876;-60
2022/02/12 00:12:24;;;;;;;;;12.75;12.75;;;;;21.13;32.63;102745.28;5056042;28;45295;-60
2022/02/12 00:14:49;;;;;;;;;15.25;15.25;;;;;21.12;32.73;102746.19;5056037;28;45412;-60
2022/02/12 00:17:15;;;;;;;;;14.75;14.75;;;;;21.07;32.56;102738.41;5056378;28;46064;-60
2022/02/12 00:19:40;;;;;;;;;14.75;13.50;;;;;21.07;32.79;102732.28;5059251;28;45272;-60
2022/02/12 00:22:06;;;;;;;;;16.50;13.50;;;;;21.05;32.08;102728.81;5059683;28;45386;-60
2022/02/12 00:24:31;;;;;;;;;16.25;15.25;;;;;21.01;32.40;102726.25;5059670;28;45426;-60
2022/02/12 00:26:56;;;;;;;;;15.75;14.75;;;;;21.00;32.55;102726.31;5059196;28;46321;-60
2022/02/12 00:29:22;;;;;;;;;15.75;14.00;;;;;20.96;32.71;102719.38;5059089;28;45367;-60
2022/02/12 00:31:47;;;;;;;;;13.25;12.75;;;;;20.95;32.25;102722.91;5041198;28;45532;-60
2022/02/12 00:34:12;;;;;;;;;16.00;11.00;;;;;20.93;32.49;102724.75;5041350;28;45602;-60
2022/02/12 00:36:38;;;;;;;;;17.25;14.25;;;;;20.91;32.20;102727.41;5059330;28;45364;-60
2022/02/12 00:39:04;;;;;;;;;16.25;15.00;;;;;20.89;32.38;102723.94;5058930;28;45365;-60
2022/02/12 00:41:30;;;;;;;;;16.25;13.50;;;;;20.88;32.58;102721.38;5059140;28;45248;-60
2022/02/12 00:43:56;;;;;;;;;18.00;15.75;;;;;20.85;32.24;102717.06;5041206;28;45225;-60
2022/02/12 00:46:21;;;;;;;;;16.50;14.75;;;;;20.83;32.22;102713.59;5058968;28;45428;-60
2022/02/12 00:48:46;;;;;;;;;17.75;14.25;;;;;20.82;32.46;102722.41;5058989;28;45490;-60
2022/02/12 00:51:13;;;;;;;;;11.75;11.25;;;;;20.80;32.53;102714.53;5059004;28;45461;-60
2022/02/12 00:53:39;;;;;;;;;14.75;13.50;;;;;20.79;32.69;102717.19;5059531;28;45336;-60
2022/02/12 00:56:05;;;;;;;;;16.00;14.25;;;;;20.76;32.11;102707.63;5058837;28;46511;-60
2022/02/12 00:58:30;;;;;;;;;14.50;14.50;;;;;20.76;32.39;102717.31;5040704;28;45466;-60
2022/02/12 01:00:55;;;;;;;;;11.25;11.25;;;;;20.72;32.38;102710.34;5058806;28;45331;-59
2022/02/12 01:03:21;;;;;;;;;12.50;11.75;;;;;20.69;32.40;102712.16;5058957;28;45335;-60
2022/02/12 01:05:46;;;;;;;;;14.25;11.75;;;;;20.69;32.91;102706.88;5058660;28;45444;-60
2022/02/12 01:08:12;;;;;;;;;12.25;12.25;;;;;20.65;32.87;102707.88;5058546;28;45395;-60
2022/02/12 01:10:37;;;;;;;;;14.25;13.50;;;;;20.65;32.56;102699.97;5058999;28;45403;-60
2022/02/12 01:13:03;;;;;;;;;13.00;13.00;;;;;20.63;32.69;102696.50;5058825;28;45273;-60
2022/02/12 01:15:28;;;;;;;;;12.75;11.50;;;;;20.62;32.55;102694.78;5058233;28;45513;-60
2022/02/12 01:17:54;;;;;;;;;11.75;9.75;;;;;20.59;32.68;102684.31;5058455;28;45371;-60
2022/02/12 01:20:20;;;;;;;;;15.75;13.00;;;;;20.55;32.58;102682.69;5058326;28;45411;-59
2022/02/12 01:22:48;;;;;;;;;14.50;11.25;;;;;20.54;32.35;102673.03;5058807;28;45547;-60
2022/02/12 01:25:14;;;;;;;;;14.25;11.50;;;;;20.53;32.70;102669.53;5058203;28;46577;-60
2022/02/12 01:27:40;;;;;;;;;15.00;13.75;;;;;20.51;32.40;102671.34;5058491;28;45501;-60
2022/02/12 01:30:06;;;;;;;;;10.75;10.75;;;;;20.48;32.86;102670.56;5057452;28;45431;-60
2022/02/12 01:32:32;;;;;;;;;13.25;11.25;;;;;20.46;32.77;102662.69;5058508;28;45317;-60
2022/02/12 01:34:57;;;;;;;;;8.75;8.25;;;;;20.44;32.90;102663.66;5058157;28;45537;-60
2022/02/12 01:37:25;;;;;;;;;13.50;11.75;;;;;20.43;32.53;102661.94;5058067;28;45414;-60
2022/02/12 01:39:51;;;;;;;;;14.00;12.00;;;;;20.41;32.50;102669.00;5058086;28;45400;-60
2022/02/12 01:42:18;;;;;;;;;8.00;8.00;;;;;20.38;32.92;102670.78;5058315;28;45230;-60
2022/02/12 01:44:44;;;;;;;;;10.00;10.00;;;;;20.37;32.95;102665.59;5058015;28;46523;-60
2022/02/12 01:47:11;;;;;;;;;7.75;7.75;;;;;20.35;32.43;102670.88;5058202;28;45399;-60
2022/02/12 01:49:38;;;;;;;;;10.75;9.25;;;;;20.34;32.86;102665.66;5058145;28;45407;-59
2022/02/12 01:52:14;;;;;;;;;11.00;10.00;;;;;20.31;32.40;102666.59;5058053;28;45474;-60
2022/02/12 01:54:40;;;;;;;;;11.75;9.00;;;;;20.29;32.61;102660.50;5058110;28;46488;-60
2022/02/12 01:57:07;;;;;;;;;10.50;8.25;;;;;20.26;32.70;102655.31;5057890;28;45332;-59
2022/02/12 01:59:33;;;;;;;;;10.25;10.00;;;;;20.26;32.22;102654.44;5058006;28;45186;-60
2022/02/12 02:01:59;;;;;;;;;7.75;7.75;;;;;20.26;32.82;102651.81;5058143;28;45482;-60
2022/02/12 02:04:25;;;;;;;;;9.00;9.00;;;;;20.23;32.73;102642.22;5039525;28;48242;-60
2022/02/12 02:06:51;;;;;;;;;10.25;9.00;;;;;20.23;32.46;102644.84;5057603;28;45384;-60
2022/02/12 02:09:18;;;;;;;;;9.00;8.75;;;;;20.21;32.35;102641.41;5057807;28;45427;-59
2022/02/12 02:11:44;;;;;;;;;8.50;7.25;;;;;20.18;32.88;102630.94;5058095;28;45657;-59
2022/02/12 02:14:13;;;;;;;;;8.00;7.75;;;;;20.17;32.86;102616.06;5057520;28;45480;-60
2022/02/12 02:16:40;;;;;;;;;6.75;5.25;;;;;20.14;32.45;102605.59;5039858;28;45547;-60
2022/02/12 02:19:06;;;;;;;;;10.75;8.75;;;;;20.14;32.48;102613.50;5057582;28;45392;-60
2022/02/12 02:21:35;;;;;;;;;9.75;8.75;;;;;20.13;32.25;102609.13;5057861;28;45627;-60
2022/02/12 02:24:00;;;;;;;;;11.25;8.25;;;;;20.11;32.77;102603.91;5057304;28;45343;-60
2022/02/12 02:26:26;;;;;;;;;14.50;10.00;;;;;20.11;32.49;102597.78;5057314;28;45233;-60
2022/02/12 02:28:51;;;;;;;;;7.75;7.75;;;;;20.10;32.27;102596.06;5057491;28;45268;-59
2022/02/12 02:31:16;;;;;;;;;9.00;9.00;;;;;20.10;33.29;102590.78;5057683;28;45532;-60
2022/02/12 02:33:42;;;;;;;;;7.50;7.50;;;;;20.05;32.68;102591.78;5039326;28;45730;-60
2022/02/12 02:36:07;;;;;;;;;8.00;8.00;;;;;20.06;32.72;102590.03;5057132;28;45269;-60
2022/02/12 02:38:33;;;;;;;;;8.25;7.50;;;;;20.05;32.64;102583.88;5057323;28;45426;-60
2022/02/12 02:40:58;;;;;;;;;7.00;7.00;;;;;20.04;32.82;102587.41;5057210;28;45351;-60
2022/02/12 02:43:25;;;;;;;;;7.25;7.25;;;;;20.01;32.75;102584.84;5057044;28;45449;-60
2022/02/12 02:45:51;;;;;;;;;12.00;8.25;;;;;20.02;32.90;102580.47;5038963;28;45397;-60
2022/02/12 02:48:17;;;;;;;;;9.00;9.00;;;;;20.00;32.73;102580.50;5057146;28;45433;-60
2022/02/12 02:56:12;;;;;;;;;8.50;8.00;;;;;19.97;32.55;102561.28;5057180;28;46063;-59
2022/02/12 02:58:44;;;;;;;;;8.25;8.25;;;;;19.96;32.84;102559.53;5057113;28;45336;-60
2022/02/12 03:01:13;;;;;;;;;9.00;9.00;;;;;19.96;32.68;102557.78;5056987;28;45674;-60
2022/02/12 03:03:41;;;;;;;;;8.25;7.25;;;;;19.95;32.69;102550.78;5056773;28;46193;-60
2022/02/12 03:06:08;;;;;;;;;7.50;7.50;;;;;19.94;32.44;102543.81;5056800;28;45219;-60
2022/02/12 03:08:34;;;;;;;;;9.25;8.50;;;;;19.91;32.98;102544.75;5056874;28;45350;-59
2022/02/12 03:10:59;;;;;;;;;7.75;6.00;;;;;19.91;32.80;102541.25;5057054;28;45509;-59
2022/02/12 03:13:25;;;;;;;;;8.75;8.75;;;;;19.92;32.91;102535.06;5056692;28;45427;-59
2022/02/12 03:15:51;;;;;;;;;8.00;6.50;;;;;19.91;33.03;102533.34;5056436;28;45382;-59
2022/02/12 03:18:17;;;;;;;;;6.00;6.00;;;;;19.88;32.80;102520.28;5057224;28;45276;-59
2022/02/12 03:20:43;;;;;;;;;8.25;8.25;;;;;19.88;32.74;102517.66;5057037;28;45350;-60
2022/02/12 03:23:08;;;;;;;;;8.50;7.00;;;;;19.88;32.93;102528.19;5056427;28;46119;-60
2022/02/12 03:25:34;;;;;;;;;11.50;7.50;;;;;19.87;32.45;102516.78;5056552;28;45319;-60
2022/02/12 03:28:02;;;;;;;;;10.50;7.50;;;;;19.83;33.13;102509.84;5056566;28;45210;-59
2022/02/12 03:30:30;;;;;;;;;10.00;8.50;;;;;19.85;32.59;102505.38;5056764;28;45648;-59
2022/02/12 03:32:55;;;;;;;;;9.25;6.00;;;;;19.85;32.45;102512.44;5056230;28;47481;-59
2022/02/12 03:35:26;;;;;;;;;7.25;7.25;;;;;19.84;32.64;102510.69;5056384;28;45436;-59
2022/02/12 03:38:12;;;;;;;;;9.75;9.00;;;;;19.83;32.82;102511.59;5056397;28;45239;-59
2022/02/12 03:40:46;;;;;;;;;6.50;6.50;;;;;19.82;32.85;102504.63;5038136;28;45949;-59
2022/02/12 03:43:12;;;;;;;;;8.50;8.00;;;;;19.80;32.44;102498.53;5056272;28;46510;-59
2022/02/12 03:45:38;;;;;;;;;8.75;7.25;;;;;19.78;32.97;102490.69;5056133;28;45210;-59
2022/02/12 03:48:04;;;;;;;;;9.00;8.00;;;;;19.77;32.66;102492.47;5056192;28;45335;-59
2022/02/12 03:50:31;;;;;;;;;7.50;7.50;;;;;19.78;32.65;102504.72;5056387;28;45468;-59
2022/02/12 03:52:58;;;;;;;;;9.25;7.25;;;;;19.77;32.83;102489.81;5057708;28;46430;-59
2022/02/12 03:55:24;;;;;;;;;9.00;7.00;;;;;19.75;32.85;102489.00;5059681;28;45827;-59
2022/02/12 03:57:49;;;;;;;;;7.00;7.00;;;;;19.75;32.47;102488.13;5058710;28;45332;-59
2022/02/12 04:00:15;;;;;;;;;8.00;7.00;;;;;19.75;33.17;102485.50;5060122;28;45312;-59
2022/02/12 04:02:41;;;;;;;;;8.50;8.50;;;;;19.74;32.87;102475.88;5059678;28;45699;-59
2022/02/12 04:05:11;;;;;;;;;7.00;5.50;;;;;19.72;33.08;102469.81;5059712;28;45187;-59
2022/02/12 04:07:40;;;;;;;;;8.75;7.50;;;;;19.71;32.73;102468.06;5059723;28;45285;-59
2022/02/12 04:10:09;;;;;;;;;6.50;6.50;;;;;19.70;32.76;102467.19;5059931;28;45572;-60
2022/02/12 04:12:35;;;;;;;;;6.50;6.00;;;;;19.68;32.80;102458.47;5059720;28;46299;-59
2022/02/12 04:15:01;;;;;;;;;7.00;6.50;;;;;19.69;32.90;102456.72;5059457;28;45529;-59
2022/02/12 04:17:26;;;;;;;;;5.75;4.50;;;;;19.68;32.83;102461.09;5059747;28;45414;-59
2022/02/12 04:19:52;;;;;;;;;7.75;7.75;;;;;19.67;32.81;102461.16;5059780;28;45398;-59
2022/02/12 04:22:17;;;;;;;;;7.00;7.00;;;;;19.66;32.91;102460.31;5059839;28;46460;-59
2022/02/12 04:24:43;;;;;;;;;6.50;6.50;;;;;19.65;32.59;102461.22;5059405;28;45427;-59
2022/02/12 04:27:08;;;;;;;;;6.50;6.50;;;;;19.64;32.89;102454.22;5059443;28;45308;-59
2022/02/12 04:29:34;;;;;;;;;6.25;6.25;;;;;19.62;32.62;102448.97;5059789;28;45368;-60
2022/02/12 04:32:00;;;;;;;;;5.75;5.25;;;;;19.63;32.64;102445.44;5059244;28;46030;-59
2022/02/12 04:34:25;;;;;;;;;6.00;5.00;;;;;19.62;33.11;102448.13;5059251;28;45356;-59
2022/02/12 04:36:51;;;;;;;;;6.25;6.00;;;;;19.61;32.40;102439.38;5059719;28;45435;-59
2022/02/12 04:39:16;;;;;;;;;7.00;7.00;;;;;19.61;32.80;102436.75;5059564;28;45525;-59
2022/02/12 04:41:42;;;;;;;;;8.75;7.00;;;;;19.61;32.79;102442.00;5059045;28;45365;-59
2022/02/12 04:44:08;;;;;;;;;6.25;5.00;;;;;19.60;32.71;102434.16;5059093;28;45257;-59
2022/02/12 04:46:33;;;;;;;;;5.75;5.00;;;;;19.59;32.50;102437.69;5059135;28;45266;-59
2022/02/12 04:48:59;;;;;;;;;6.75;6.00;;;;;19.59;32.81;102438.56;5059348;28;45249;-59
2022/02/12 04:51:24;;;;;;;;;6.50;5.25;;;;;19.58;32.53;102442.09;5058745;28;45508;-59
2022/02/12 04:53:51;;;;;;;;;8.25;6.50;;;;;19.56;32.92;102436.00;5059001;28;45443;-59
2022/02/12 04:56:17;;;;;;;;;6.75;6.50;;;;;19.56;32.54;102443.88;5058988;28;45466;-59
2022/02/12 04:58:42;;;;;;;;;7.25;6.50;;;;;19.55;32.87;102443.94;5040957;28;45359;-60
2022/02/12 05:01:19;;;;;;;;;7.75;6.00;;;;;19.56;32.94;102443.88;5040330;28;46858;-59
2022/02/12 05:03:52;;;;;;;;;6.25;6.00;;;;;19.55;32.89;102441.31;5057397;28;45222;-59
2022/02/12 05:06:18;;;;;;;;;4.75;4.75;;;;;19.54;32.59;102444.84;5041049;28;45906;-59
2022/02/12 05:08:44;;;;;;;;;5.00;5.00;;;;;19.53;32.90;102437.84;5058903;28;45483;-59
2022/02/12 05:11:10;;;;;;;;;5.75;5.75;;;;;19.53;32.95;102443.94;5058432;28;46420;-59
2022/02/12 05:13:35;;;;;;;;;5.00;5.00;;;;;19.48;32.94;102422.19;5058518;28;45406;-59
2022/02/12 05:16:01;;;;;;;;;6.00;6.00;;;;;19.51;32.49;102423.88;5058620;28;45643;-59
2022/02/12 05:18:26;;;;;;;;;8.00;6.75;;;;;19.51;32.83;102419.50;5058728;28;45273;-59
2022/02/12 05:20:52;;;;;;;;;8.00;8.00;;;;;19.50;32.62;102425.66;5058405;28;45321;-59
2022/02/12 05:23:17;;;;;;;;;7.25;6.00;;;;;19.49;32.92;102426.53;5058324;28;45314;-59
2022/02/12 05:25:43;;;;;;;;;7.50;6.50;;;;;19.49;32.81;102416.03;5058505;28;45302;-59
2022/02/12 05:28:08;;;;;;;;;5.50;5.50;;;;;19.48;32.68;102422.19;5058749;28;45378;-59
2022/02/12 05:30:33;;;;;;;;;6.75;5.75;;;;;19.47;32.88;102413.41;5058328;28;46458;-59
2022/02/12 05:32:59;;;;;;;;;5.00;5.00;;;;;19.46;32.69;102410.84;5058189;28;45426;-59
2022/02/12 05:35:26;;;;;;;;;8.75;7.00;;;;;19.46;32.79;102410.84;5040228;28;45388;-59
2022/02/12 05:37:51;;;;;;;;;5.50;5.50;;;;;19.43;32.39;102406.53;5024158;28;45438;-59
2022/02/12 05:40:17;;;;;;;;;6.75;5.00;;;;;19.42;32.90;102401.28;5040182;28;46119;-59
2022/02/12 05:42:42;;;;;;;;;8.50;5.50;;;;;19.43;32.70;102403.03;5057958;28;45456;-59
2022/02/12 05:45:08;;;;;;;;;6.00;5.00;;;;;19.42;32.71;102396.91;5058205;28;45319;-59
2022/02/12 05:47:38;;;;;;;;;6.75;6.75;;;;;19.40;32.86;102395.22;5058316;28;45394;-58
2022/02/12 05:50:04;;;;;;;;;6.75;6.25;;;;;19.40;32.59;102388.19;5057854;28;46012;-58
2022/02/12 05:52:29;;;;;;;;;7.50;7.00;;;;;19.39;32.51;102383.84;5058003;28;45336;-58
2022/02/12 05:54:55;;;;;;;;;6.00;5.50;;;;;19.38;32.72;102381.25;5058415;28;45381;-58
2022/02/12 05:57:20;;;;;;;;;5.25;5.25;;;;;19.37;32.66;102377.75;5040348;28;45317;-58
2022/02/12 05:59:45;;;;;;;;;5.75;5.00;;;;;19.38;32.33;102376.84;5057740;28;45496;-59
2022/02/12 06:02:11;;;;;;;;;4.00;4.00;;;;;19.36;32.75;102368.13;5057691;28;45334;-58
2022/02/12 06:04:36;;;;;;;;;4.00;3.25;;;;;19.34;32.64;102367.34;5057804;28;45368;-58
2022/02/12 06:07:02;;;;;;;;;5.50;4.50;;;;;19.35;32.68;102371.66;5057910;28;45635;-58
2022/02/12 06:09:27;;;;;;;;;2.00;2.00;;;;;19.35;32.74;102365.56;5057618;28;46399;-58
2022/02/12 06:11:53;;;;;;;;;6.50;3.75;;;;;19.33;33.05;102362.97;5057945;28;45426;-58
2022/02/12 06:14:18;;;;;;;;;8.75;7.00;;;;;19.33;32.79;102362.97;5057444;28;45355;-58
2022/02/12 06:16:44;;;;;;;;;5.50;4.75;;;;;19.31;32.81;102360.38;5057518;28;45536;-58
2022/02/12 06:19:10;;;;;;;;;6.50;5.00;;;;;19.31;32.82;102367.41;5057199;28;45435;-60
2022/02/12 06:21:35;;;;;;;;;7.75;7.50;;;;;19.26;32.31;102356.13;5039541;28;45705;-58
2022/02/12 06:24:04;;;;;;;;;5.00;4.25;;;;;19.24;32.40;102358.81;5057635;28;45367;-58
2022/02/12 06:26:29;;;;;;;;;8.50;7.75;;;;;19.24;32.24;102363.19;5057758;28;45549;-58
2022/02/12 06:28:54;;;;;;;;;4.00;4.00;;;;;19.22;32.61;102360.59;5057723;28;47396;-58
2022/02/12 06:31:20;;;;;;;;;4.25;4.25;;;;;19.22;32.54;102354.50;5057367;28;45459;-58
2022/02/12 06:33:45;;;;;;;;;6.00;4.50;;;;;19.22;32.25;102355.34;5057476;28;45462;-60
2022/02/12 06:36:11;;;;;;;;;6.50;5.25;;;;;19.20;32.66;102345.78;5057498;28;45602;-60
2022/02/12 06:38:37;;;;;;;;;5.00;5.00;;;;;19.22;32.25;102346.63;5057258;28;46977;-60
2022/02/12 06:41:02;;;;;;;;;6.00;6.00;;;;;19.15;32.30;102338.03;5057126;28;45422;-60
2022/02/12 06:43:27;;;;;;;;;4.75;4.75;;;;;19.19;32.44;102341.44;5057404;28;45276;-60
2022/02/12 06:45:53;;;;;;;;;6.25;5.00;;;;;19.20;32.52;102338.75;5057742;28;45510;-60
2022/02/12 06:48:18;;;;;;;;;6.00;4.00;;;;;19.19;32.06;102344.06;5057028;28;45959;-59
2022/02/12 06:50:44;;;;;;;;;5.75;4.50;;;;;19.18;32.65;102332.69;5057083;28;45319;-60
2022/02/12 06:53:10;;;;;;;;;4.75;4.00;;;;;19.18;32.57;102343.22;5057151;28;45380;-59
2022/02/12 06:55:35;;;;;;;;;6.00;4.00;;;;;19.18;32.18;102342.34;5057292;28;45230;-60
2022/02/12 06:58:00;;;;;;;;;4.00;4.00;;;;;19.16;32.62;102337.97;5056841;28;45289;-60
2022/02/12 07:00:28;;;;;;;;;4.75;4.00;;;;;19.17;32.20;102346.75;5057169;28;45181;-60
2022/02/12 07:02:53;;;;;;;;;6.50;4.75;;;;;19.14;32.35;102336.28;5057211;28;45313;-59
2022/02/12 07:05:19;;;;;;;;;5.75;4.50;;;;;19.16;32.41;102345.00;5057001;28;45567;-59
2022/02/12 07:07:46;;;;;;;;;5.00;3.75;;;;;19.15;32.25;102346.75;5038643;28;46038;-59
2022/02/12 07:10:12;;;;;;;;;4.25;4.00;;;;;19.13;32.40;102351.19;5038707;28;45917;-59
2022/02/12 07:12:38;;;;;;;;;3.00;2.50;;;;;19.12;32.25;102341.59;5056873;28;45388;-59
2022/02/12 07:15:04;;;;;;;;;5.75;4.50;;;;;19.13;32.26;102345.06;5038745;28;45579;-59
2022/02/12 07:17:29;;;;;;;;;5.00;5.00;;;;;19.12;32.59;102349.47;5038373;28;48120;-59
2022/02/12 07:19:54;;;;;;;;;5.00;5.00;;;;;19.11;32.71;102342.50;5056971;28;45450;-59
2022/02/12 07:22:26;;;;;;;;;3.00;3.00;;;;;19.11;32.29;102339.88;5056700;28;45232;-59
2022/02/12 07:24:51;;;;;;;;;6.75;4.50;;;;;19.09;32.23;102344.28;5038562;28;45332;-59
2022/02/12 07:27:17;;;;;;;;;4.25;4.25;;;;;19.11;32.16;102350.38;5055340;28;46677;-59
2022/02/12 07:29:43;;;;;;;;;3.25;3.25;;;;;19.09;32.41;102346.94;5056498;28;45378;-59
2022/02/12 07:32:08;;;;;;;;;4.25;4.25;;;;;19.10;32.34;102339.88;5056549;28;45432;-59
2022/02/12 07:34:33;;;;;;;;;5.50;4.25;;;;;19.07;32.52;102346.09;5056640;28;45353;-60
2022/02/12 07:36:58;;;;;;;;;6.50;5.00;;;;;19.08;32.33;102337.31;5056447;28;45438;-59
2022/02/12 07:39:25;;;;;;;;;4.25;4.00;;;;;19.07;32.15;102340.84;5038292;28;45431;-59
2022/02/12 07:41:50;;;;;;;;;7.25;4.25;;;;;19.07;32.47;102345.25;5056504;28;45373;-59
2022/02/12 07:44:16;;;;;;;;;4.25;4.25;;;;;19.05;32.35;102340.00;5056569;28;45313;-59
2022/02/12 07:46:41;;;;;;;;;1.50;1.25;;;;;19.06;32.27;102347.00;5055946;28;46378;-59
2022/02/12 07:49:06;;;;;;;;;5.50;4.00;;;;;19.04;32.39;102343.53;5056242;28;45330;-59
2022/02/12 07:51:32;;;;;;;;;4.25;4.25;;;;;19.02;32.29;102347.97;5056218;28;45223;-59
2022/02/12 07:53:58;;;;;;;;;4.00;4.00;;;;;19.02;32.06;102345.31;5056824;28;45382;-59
2022/02/12 07:56:24;;;;;;;;;5.75;5.50;;;;;19.05;31.99;102352.31;5056084;28;45566;-59
2022/02/12 07:58:49;;;;;;;;;5.00;4.00;;;;;19.03;32.07;102348.84;5056092;28;45220;-59
2022/02/12 08:01:15;;;;;;;;;4.00;2.75;;;;;19.03;32.41;102357.56;5056128;28;45437;-59
2022/02/12 08:03:40;;;;;;;;;4.00;4.00;;;;;19.04;32.19;102343.53;5056028;28;45310;-59
2022/02/12 08:07:27;;;;;;;;;7.00;4.75;;;;;19.03;32.28;102343.59;5055674;28;46602;-59
2022/02/12 08:08:51;;;;;;;;;3.50;3.50;;;;;19.04;32.25;102345.31;5055814;28;45437;-59
2022/02/12 08:11:22;;;;;;;;;5.00;5.00;;;;;19.02;31.83;102350.59;5056255;28;45773;-59
2022/02/12 08:13:48;;;;;;;;;4.75;4.00;;;;;19.00;32.14;102349.78;5055973;28;45229;-59
2022/02/12 08:16:13;;;;;;;;;5.00;5.00;;;;;19.01;32.20;102362.03;5055989;28;45357;-59
2022/02/12 08:18:39;;;;;;;;;6.25;5.75;;;;;19.01;32.09;102356.78;5055810;28;45244;-59
2022/02/12 08:21:04;;;;;;;;;4.75;4.00;;;;;19.01;32.14;102356.78;5055872;28;45301;-55
2022/02/12 08:23:30;;;;;;;;;4.75;4.75;;;;;19.00;32.27;102350.63;5056295;28;45316;-54
2022/02/12 08:25:56;;;;;;;;;5.00;5.00;;;;;18.98;31.96;102348.97;5055600;28;47146;-56
2022/02/12 08:28:21;;;;;;;;;3.25;3.25;;;;;18.94;32.19;102347.28;5055738;28;45373;-55
2022/02/12 08:30:46;;;;;;;;;4.50;4.50;;;;;18.92;32.10;102339.44;5055985;28;45331;-55
2022/02/12 08:33:12;;;;;;;;;5.00;5.00;;;;;18.94;32.23;102347.28;5055864;28;45373;-55
2022/02/12 08:35:37;;;;;;;;;4.25;4.00;;;;;18.93;32.01;102349.06;5055575;28;45464;-59
2022/02/12 08:38:02;;;;;;;;;5.25;4.25;;;;;18.92;32.28;102341.16;5056364;28;45325;-56
2022/02/12 08:40:28;;;;;;;;;6.00;4.00;;;;;18.90;32.35;102343.84;5059415;28;45352;-54
2022/02/12 08:42:54;;;;;;;;;5.50;4.00;;;;;18.92;32.08;102338.53;5059287;28;45427;-55
2022/02/12 08:45:20;;;;;;;;;6.75;4.50;;;;;18.92;32.00;102335.91;5058929;28;47089;-54
2022/02/12 08:47:46;;;;;;;;;4.00;4.00;;;;;18.92;32.28;102341.16;5058943;28;45806;-56
2022/02/12 08:50:12;;;;;;;;;5.25;3.75;;;;;18.92;32.06;102335.91;5058967;28;45379;-54
2022/02/12 08:52:41;;;;;;;;;4.25;4.25;;;;;18.92;32.19;102341.16;5059149;28;45199;-56
2022/02/12 08:55:08;;;;;;;;;5.75;5.00;;;;;18.92;32.26;102335.91;5058674;28;46578;-55
2022/02/12 08:57:34;;;;;;;;;4.00;4.00;;;;;18.89;31.96;102331.59;5058957;28;45352;-56
2022/02/12 08:59:59;;;;;;;;;7.00;5.25;;;;;18.90;32.28;102333.34;5059011;28;45876;-58
2022/02/12 09:02:24;;;;;;;;;6.50;4.25;;;;;18.92;32.17;102326.28;5056732;28;45284;-58
2022/02/12 09:04:50;;;;;;;;;5.00;5.00;;;;;18.92;31.92;102314.91;5057027;28;45470;-58
2022/02/12 09:07:15;;;;;;;;;3.50;3.50;;;;;18.92;32.05;102315.78;5057759;28;45396;-58
2022/02/12 09:09:42;;;;;;;;;8.25;5.00;;;;;18.95;32.27;102317.50;5058714;28;45339;-58
2022/02/12 09:12:11;;;;;;;;;5.00;3.75;;;;;18.95;32.14;102314.88;5057913;28;45217;-59
2022/02/12 09:14:37;;;;;;;;;5.00;4.00;;;;;18.96;31.83;102311.34;5057743;28;46151;-59
2022/02/12 09:17:03;;;;;;;;;4.00;4.00;;;;;18.95;32.50;102309.59;5058473;28;45523;-59
2022/02/12 09:19:29;;;;;;;;;2.25;2.25;;;;;18.96;32.24;102311.34;5058357;28;46032;-55
2022/02/12 09:21:55;;;;;;;;;5.00;3.75;;;;;18.95;31.96;102302.59;5058580;28;46127;-55
2022/02/12 09:24:20;;;;;;;;;6.00;4.75;;;;;18.96;31.92;102306.09;5057851;28;45323;-56
2022/02/12 09:26:45;;;;;;;;;4.50;4.00;;;;;18.95;32.14;102301.72;5058042;28;45402;-55
2022/02/12 09:29:12;;;;;;;;;3.75;3.75;;;;;18.91;31.68;102295.66;5057861;28;45706;-55
2022/02/12 09:31:38;;;;;;;;;4.00;4.00;;;;;18.94;31.83;102305.25;5058257;28;45387;-55
2022/02/12 09:34:05;;;;;;;;;6.50;5.00;;;;;18.91;32.14;102297.41;5058229;28;46170;-56
2022/02/12 09:36:31;;;;;;;;;3.25;3.25;;;;;18.95;31.89;102296.47;5057760;28;45380;-55
2022/02/12 09:38:56;;;;;;;;;6.25;5.00;;;;;18.94;31.66;102293.00;5058006;28;45387;-55
2022/02/12 09:41:27;;;;;;;;;7.00;5.00;;;;;18.94;31.99;102282.50;5057930;28;45457;-56
2022/02/12 09:43:55;;;;;;;;;4.00;4.00;;;;;18.94;31.87;102285.13;5057407;28;46478;-55
2022/02/12 09:46:30;;;;;;;;;7.00;5.75;;;;;18.94;31.93;102286.88;5057572;28;45382;-55
2022/02/12 09:48:56;;;;;;;;;6.25;5.75;;;;;18.92;31.84;102276.38;5058200;28;45415;-56
2022/02/12 09:51:23;;;;;;;;;5.00;5.00;;;;;18.93;31.65;102280.75;5057241;28;45494;-58
2022/02/12 09:53:48;;;;;;;;;5.25;3.50;;;;;18.92;31.77;102278.13;5057141;28;46252;-56
2022/02/12 09:56:13;;;;;;;;;4.75;4.25;;;;;18.91;32.06;102276.38;5057446;28;45486;-54
2022/02/12 09:58:39;;;;;;;;;4.50;2.25;;;;;18.94;31.71;102271.09;5057904;28;45307;-56
2022/02/12 10:01:04;;;;;;;;;5.00;5.00;;;;;18.93;31.57;102271.97;5058001;28;45633;-55
2022/02/12 10:03:30;;;;;;;;;5.00;4.00;;;;;18.93;31.87;102280.75;5056814;28;45344;-56
2022/02/12 10:05:55;;;;;;;;;5.00;5.00;;;;;18.93;31.71;102280.75;5057562;28;45346;-55
2022/02/12 10:08:22;;;;;;;;;6.50;6.00;;;;;18.92;31.81;102268.50;5057364;28;45303;-55
2022/02/12 10:10:49;;;;;;;;;8.75;6.00;;;;;18.94;32.01;102263.22;5057815;28;45463;-55
2022/02/12 10:13:15;;;;;;;;;4.75;4.75;;;;;18.94;31.74;102265.84;5056759;28;46654;-56
2022/02/12 10:15:55;;;;;;;;;4.00;3.00;;;;;18.93;31.64;102269.34;5056885;28;45446;-55
2022/02/12 10:18:24;;;;;;;;;5.50;5.00;;;;;18.91;32.15;102250.13;5057249;28;45342;-56
2022/02/12 10:20:52;;;;;;;;;7.00;4.00;;;;;18.93;31.87;102253.56;5057549;28;45429;-55
2022/02/12 10:23:23;;;;;;;;;5.25;4.25;;;;;18.92;31.84;102247.47;5056669;28;46132;-55
2022/02/12 10:26:01;;;;;;;;;9.00;5.00;;;;;18.93;31.88;102240.44;5057301;28;45602;-54
2022/02/12 10:28:26;;;;;;;;;6.25;5.75;;;;;18.96;32.03;102243.03;5057409;28;45356;-56
2022/02/12 10:30:52;;;;;;;;;6.00;5.50;;;;;19.01;32.02;102235.91;5057606;28;45551;-54
2022/02/12 10:33:17;;;;;;;;;5.00;5.00;;;;;19.06;32.08;102236.63;5039125;28;46488;-56
2022/02/12 10:35:55;;;;;;;;;3.00;3.00;;;;;19.12;31.77;102233.84;5057252;28;45415;-56
2022/02/12 10:38:25;;;;;;;;;4.50;4.50;;;;;19.19;32.00;102229.25;5057248;28;45309;-56
2022/02/12 10:41:05;;;;;;;;;5.00;5.00;;;;;19.28;31.72;102222.91;5057431;28;45605;-56
2022/02/12 10:43:31;;;;;;;;;4.25;4.00;;;;;19.33;32.15;102221.00;5057167;28;46918;-57
2022/02/12 10:45:56;;;;;;;;;5.25;4.25;;;;;19.40;31.86;102222.56;5057000;28;45245;-56
2022/02/12 10:48:24;;;;;;;;;7.00;4.00;;;;;19.44;31.89;102213.69;5057133;28;45221;-56
2022/02/12 10:51:01;;;;;;;;;3.00;3.00;;;;;19.51;31.79;102209.09;5057541;28;45340;-61
2022/02/12 10:53:28;;;;;;;;;4.00;4.00;;;;;19.55;31.62;102218.63;5056923;28;46539;-55
2022/02/12 10:56:01;;;;;;;;;5.50;4.25;;;;;19.60;31.27;102208.84;5057059;28;45839;-56
2022/02/12 10:58:26;;;;;;;;;4.25;4.25;;;;;19.64;31.19;102214.88;5056998;28;45431;-55
2022/02/12 11:00:52;;;;;;;;;5.00;4.25;;;;;19.69;31.20;102206.84;5057005;28;45474;-55
2022/02/12 11:03:20;;;;;;;;;4.00;4.00;;;;;19.73;31.21;102203.22;5055341;28;46251;-56
2022/02/12 11:05:51;;;;;;;;;3.00;3.00;;;;;19.75;31.65;102202.25;5056812;28;45356;-54
2022/02/12 11:08:20;;;;;;;;;3.00;3.00;;;;;19.81;31.17;102208.22;5056751;28;45269;-56
2022/02/12 11:10:45;;;;;;;;;5.25;5.00;;;;;19.84;31.22;102200.25;5057047;28;45515;-55
2022/02/12 11:13:12;;;;;;;;;6.00;4.25;;;;;19.86;31.27;102187.94;5056624;28;45276;-56
2022/02/12 11:15:37;;;;;;;;;5.75;3.75;;;;;19.87;31.01;102182.63;5056670;28;45270;-54
2022/02/12 11:18:12;;;;;;;;;3.75;2.75;;;;;19.88;31.26;102186.13;5056765;28;45275;-55
2022/02/12 11:20:43;;;;;;;;;5.00;5.00;;;;;19.89;30.76;102177.31;5057200;28;45240;-55
2022/02/12 11:23:24;;;;;;;;;4.25;3.75;;;;;19.94;31.09;102175.41;5056869;28;46433;-56